Archival Weather

Snohomish County (Paine Fld)

Everett, Washington (KPAE)

Report from: Sunday, November 19, 2023 4:53 PM PST
Current time: Sunday, June 16, 2024 11:48 PM PDT

Current weather – Weather history – Daily summaries
Weather forecast

Temperature6.7°C (44.1°F)
Dew point2.8°C (37.0°F)
Winds Calm
Visibility10 mi. (16.1 km)
Clouds Few clouds 3,000 ft. (914 m)
Altimeter30.43 in.Hg (1030 mB)
Relative humidity76 %
Density altitude-1,482 ft. (-452 m)
Sea-level pressure103.1 kPa (1031 mB, 30.44 in.Hg)
Remarks Automated weather observing station with precipitation discriminator
Flight conditions Visual Meteorological Conditions
Raw dataKPAE 200053Z 00000KT 10SM FEW030 07/03 A3043 RMK AO2 SLP308 T00670028
An error has occurred. This application may no longer respond until reloaded. Reload 🗙